createdAt,value
2016-10-08T00:00:36.596Z,10.35
2016-10-08T00:01:36.640Z,10.3
2016-10-08T00:02:36.637Z,10.34
2016-10-08T00:03:36.655Z,10.26
2016-10-08T00:04:36.681Z,10.35
2016-10-08T00:05:36.707Z,10.28
2016-10-08T00:06:36.710Z,10.25
2016-10-08T00:07:36.729Z,10.3
2016-10-08T00:08:36.759Z,10.2
2016-10-08T00:09:36.766Z,10.2
2016-10-08T00:10:36.778Z,10.23
2016-10-08T00:11:36.805Z,10.26
2016-10-08T00:12:36.799Z,10.3
2016-10-08T00:13:36.829Z,10.26
2016-10-08T00:14:36.840Z,10.31
2016-10-08T00:15:36.864Z,10.25
2016-10-08T00:16:36.876Z,10.23
2016-10-08T00:17:36.889Z,10.19
2016-10-08T00:18:36.909Z,10.13
2016-10-08T00:19:36.921Z,10.2
2016-10-08T00:20:37.041Z,10.09
2016-10-08T00:21:36.949Z,10.13
2016-10-08T00:22:36.991Z,10.15
2016-10-08T00:23:36.984Z,10.15
2016-10-08T00:24:37.008Z,10.13
2016-10-08T00:25:37.015Z,10.16
2016-10-08T00:26:37.044Z,10.01
2016-10-08T00:27:37.066Z,10.04
2016-10-08T00:28:37.056Z,10.02
2016-10-08T00:29:37.083Z,10.07
2016-10-08T00:30:37.117Z,10.04
2016-10-08T00:31:37.124Z,10.01
2016-10-08T00:32:37.142Z,10.05
2016-10-08T00:33:37.137Z,10.02
2016-10-08T00:34:37.160Z,10.02
2016-10-08T00:35:37.198Z,10.04
2016-10-08T00:36:37.205Z,10.01
2016-10-08T00:37:37.232Z,10.04
2016-10-08T00:38:37.567Z,9.98
2016-10-08T00:39:37.256Z,10.01
2016-10-08T00:40:37.261Z,9.97
2016-10-08T00:41:37.279Z,9.98
2016-10-08T00:42:37.308Z,10.01
2016-10-08T00:43:37.301Z,10.01
2016-10-08T00:44:37.349Z,9.91
2016-10-08T00:45:37.349Z,10.01
2016-10-08T00:46:37.371Z,9.94
2016-10-08T00:47:37.368Z,9.97
2016-10-08T00:48:37.404Z,9.82
2016-10-08T00:49:37.399Z,9.87
2016-10-08T00:50:37.444Z,9.74
2016-10-08T00:51:37.436Z,9.83
2016-10-08T00:52:37.456Z,9.76
2016-10-08T00:53:37.484Z,9.68
2016-10-08T00:54:37.503Z,9.72
2016-10-08T00:55:37.518Z,9.73
2016-10-08T00:56:37.539Z,9.73
2016-10-08T00:57:37.527Z,9.65
2016-10-08T00:58:37.575Z,9.74
2016-10-08T00:59:37.573Z,9.73
2016-10-08T01:00:37.605Z,9.68
2016-10-08T01:01:37.598Z,9.74
2016-10-08T01:02:37.624Z,9.69
2016-10-08T01:03:37.638Z,9.65
2016-10-08T01:04:37.662Z,9.68
2016-10-08T01:05:37.671Z,9.68
2016-10-08T01:06:37.687Z,9.65
2016-10-08T01:07:37.707Z,9.68
2016-10-08T01:08:37.814Z,9.73
2016-10-08T01:09:37.732Z,9.66
2016-10-08T01:10:37.763Z,9.69
2016-10-08T01:11:37.778Z,9.69
2016-10-08T01:12:37.782Z,9.64
2016-10-08T01:13:37.797Z,9.68
2016-10-08T01:14:37.818Z,9.64
2016-10-08T01:15:37.840Z,9.66
2016-10-08T01:16:37.853Z,9.68
2016-10-08T01:17:37.861Z,9.68
2016-10-08T01:18:37.871Z,9.72
2016-10-08T01:19:37.895Z,9.72
2016-10-08T01:20:37.909Z,9.73
2016-10-08T01:21:37.924Z,9.73
2016-10-08T01:22:37.956Z,9.77
2016-10-08T01:23:37.964Z,9.66
2016-10-08T01:24:37.983Z,9.79
2016-10-08T01:25:37.993Z,9.68
2016-10-08T01:26:38.021Z,9.68
2016-10-08T01:27:38.022Z,9.68
2016-10-08T01:28:38.040Z,9.69
2016-10-08T01:29:38.045Z,9.73
2016-10-08T01:30:38.072Z,9.73
2016-10-08T01:31:38.083Z,9.68
2016-10-08T01:32:38.098Z,9.68
2016-10-08T01:33:38.117Z,9.62
2016-10-08T01:34:38.134Z,9.68
2016-10-08T01:35:38.150Z,9.64
2016-10-08T01:36:38.176Z,9.77
2016-10-08T01:37:38.182Z,9.73
2016-10-08T01:38:38.206Z,9.74
2016-10-08T01:39:38.207Z,9.68
2016-10-08T01:40:38.233Z,9.73
2016-10-08T01:41:38.259Z,9.79
2016-10-08T01:42:38.266Z,9.82
2016-10-08T01:43:38.289Z,9.8
2016-10-08T01:44:38.301Z,9.79
2016-10-08T01:45:38.303Z,9.8
2016-10-08T01:46:38.664Z,9.76
2016-10-08T01:47:38.348Z,9.74
2016-10-08T01:48:38.362Z,9.76
2016-10-08T01:49:38.381Z,9.84
2016-10-08T01:50:38.393Z,9.79
2016-10-08T01:51:38.412Z,9.84
2016-10-08T01:52:38.440Z,9.73
2016-10-08T01:53:38.441Z,9.8
2016-10-08T01:54:38.479Z,9.72
2016-10-08T01:55:38.463Z,9.77
2016-10-08T01:56:38.481Z,9.72
2016-10-08T01:57:38.507Z,9.74
2016-10-08T01:58:38.529Z,9.76
2016-10-08T01:59:38.529Z,9.69
2016-10-08T02:00:38.558Z,9.8
2016-10-08T02:01:38.554Z,9.77
2016-10-08T02:02:38.596Z,9.76
2016-10-08T02:03:38.591Z,9.82
2016-10-08T02:04:38.951Z,9.83
2016-10-08T02:05:38.619Z,9.76
2016-10-08T02:06:38.649Z,9.83
2016-10-08T02:07:38.665Z,9.72
2016-10-08T02:08:38.698Z,9.73
2016-10-08T02:09:38.707Z,9.68
2016-10-08T02:10:38.711Z,9.69
2016-10-08T02:11:38.733Z,9.65
2016-10-08T02:12:38.754Z,9.64
2016-10-08T02:13:38.753Z,9.56
2016-10-08T02:14:38.787Z,9.48
2016-10-08T02:15:38.790Z,9.48
2016-10-08T02:16:38.803Z,9.5
2016-10-08T02:17:38.832Z,9.44
2016-10-08T02:18:38.855Z,9.37
2016-10-08T02:19:38.862Z,9.48
2016-10-08T02:20:38.872Z,9.48
2016-10-08T02:21:38.895Z,9.41
2016-10-08T02:22:38.912Z,9.44
2016-10-08T02:23:38.926Z,9.44
2016-10-08T02:24:38.956Z,9.47
2016-10-08T02:25:38.963Z,9.47
2016-10-08T02:26:38.978Z,9.55
2016-10-08T02:27:38.985Z,9.44
2016-10-08T02:28:39.006Z,9.46
2016-10-08T02:29:39.031Z,9.46
2016-10-08T02:30:39.033Z,9.5
2016-10-08T02:31:39.053Z,9.5
2016-10-08T02:32:39.056Z,9.51
2016-10-08T02:33:39.085Z,9.48
2016-10-08T02:34:39.110Z,9.54
2016-10-08T02:35:39.122Z,9.5
2016-10-08T02:36:39.136Z,9.55
2016-10-08T02:37:39.152Z,9.54
2016-10-08T02:38:39.157Z,9.51
2016-10-08T02:39:39.177Z,9.55
2016-10-08T02:40:39.199Z,9.54
2016-10-08T02:41:39.215Z,9.46
2016-10-08T02:42:39.220Z,9.46
2016-10-08T02:43:39.245Z,9.51
2016-10-08T02:44:39.261Z,9.4
2016-10-08T02:45:39.272Z,9.39
2016-10-08T02:46:39.300Z,9.46
2016-10-08T02:47:39.313Z,9.37
2016-10-08T02:48:39.328Z,9.43
2016-10-08T02:49:39.337Z,9.36
2016-10-08T02:50:39.364Z,9.47
2016-10-08T02:51:39.359Z,9.4
2016-10-08T02:52:39.388Z,9.46
2016-10-08T02:53:39.418Z,9.4
2016-10-08T02:54:39.426Z,9.44
2016-10-08T02:55:39.440Z,9.32
2016-10-08T02:56:39.468Z,9.31
2016-10-08T02:57:39.471Z,9.32
2016-10-08T02:58:39.494Z,9.37
2016-10-08T02:59:39.518Z,9.36
2016-10-08T03:00:39.520Z,9.28
2016-10-08T03:01:39.529Z,9.29
2016-10-08T03:02:39.554Z,9.31
2016-10-08T03:03:39.562Z,9.28
2016-10-08T03:04:39.594Z,9.25
2016-10-08T03:05:39.603Z,9.16
2016-10-08T03:06:39.618Z,9.14
2016-10-08T03:07:39.621Z,9.28
2016-10-08T03:08:39.976Z,9.18
2016-10-08T03:09:39.657Z,9.21
2016-10-08T03:10:39.668Z,9.18
2016-10-08T03:11:39.694Z,9.21
2016-10-08T03:12:39.707Z,9.22
2016-10-08T03:13:39.716Z,9.29
2016-10-08T03:14:39.732Z,9.29
2016-10-08T03:15:39.755Z,9.29
2016-10-08T03:16:39.765Z,9.31
2016-10-08T03:17:39.773Z,9.26
2016-10-08T03:18:39.802Z,9.28
2016-10-08T03:19:39.813Z,9.14
2016-10-08T03:20:39.837Z,9.13
2016-10-08T03:21:39.840Z,9.21
2016-10-08T03:22:39.854Z,9.21
2016-10-08T03:23:39.871Z,9.06
2016-10-08T03:24:39.878Z,9.11
2016-10-08T03:25:39.915Z,8.97
2016-10-08T03:26:39.916Z,9.02
2016-10-08T03:27:39.932Z,8.92
2016-10-08T03:28:39.948Z,8.88
2016-10-08T03:29:39.972Z,8.79
2016-10-08T03:30:39.978Z,8.73
2016-10-08T03:31:39.994Z,8.7
2016-10-08T03:32:40.038Z,8.71
2016-10-08T03:33:40.024Z,8.7
2016-10-08T03:34:40.064Z,8.73
2016-10-08T03:35:40.063Z,8.7
2016-10-08T03:36:40.083Z,8.63
2016-10-08T03:37:40.110Z,8.61
2016-10-08T03:38:40.137Z,8.64
2016-10-08T03:39:40.129Z,8.56
2016-10-08T03:40:40.147Z,8.6
2016-10-08T03:41:40.153Z,8.67
2016-10-08T03:42:40.157Z,8.67
2016-10-08T03:43:40.197Z,8.56
2016-10-08T03:44:40.199Z,8.6
2016-10-08T03:45:40.219Z,8.48
2016-10-08T03:46:40.242Z,8.46
2016-10-08T03:47:40.251Z,8.46
2016-10-08T03:48:40.279Z,8.51
2016-10-08T03:49:40.288Z,8.41
2016-10-08T03:50:40.303Z,8.46
2016-10-08T03:51:40.308Z,8.36
2016-10-08T03:52:40.319Z,8.38
2016-10-08T03:53:40.327Z,8.34
2016-10-08T03:54:40.366Z,8.27
2016-10-08T03:55:40.378Z,8.24
2016-10-08T03:56:40.386Z,8.28
2016-10-08T03:57:40.417Z,8.26
2016-10-08T03:58:40.422Z,8.23
2016-10-08T03:59:40.434Z,8.23
2016-10-08T04:01:40.471Z,8.12
2016-10-08T04:02:40.472Z,8.19
2016-10-08T04:03:40.502Z,8.13
2016-10-08T04:04:40.518Z,8.16
2016-10-08T04:05:40.535Z,8.18
2016-10-08T04:06:40.538Z,8.16
2016-10-08T04:07:40.560Z,8.12
2016-10-08T04:08:40.564Z,8.09
2016-10-08T04:09:40.593Z,8.08
2016-10-08T04:10:40.604Z,8.03
2016-10-08T04:11:40.604Z,8.05
2016-10-08T04:12:40.660Z,7.93
2016-10-08T04:13:40.645Z,7.97
2016-10-08T04:14:40.671Z,7.91
2016-10-08T04:15:40.681Z,7.9
2016-10-08T04:16:40.686Z,7.79
2016-10-08T04:17:40.709Z,7.8
2016-10-08T04:18:40.726Z,7.82
2016-10-08T04:19:40.746Z,7.76
2016-10-08T04:20:40.749Z,7.73
2016-10-08T04:21:40.785Z,7.69
2016-10-08T04:22:40.810Z,7.69
2016-10-08T04:23:40.815Z,7.61
2016-10-08T04:24:40.823Z,7.6
2016-10-08T04:25:40.843Z,7.67
2016-10-08T04:26:40.860Z,7.58
2016-10-08T04:27:40.869Z,7.6
2016-10-08T04:28:40.890Z,7.56
2016-10-08T04:29:40.896Z,7.51
2016-10-08T04:30:40.912Z,7.6
2016-10-08T04:31:40.927Z,7.51
2016-10-08T04:32:40.963Z,7.5
2016-10-08T04:33:40.961Z,7.53
2016-10-08T04:34:40.977Z,7.35
2016-10-08T04:35:40.978Z,7.4
2016-10-08T04:36:41.007Z,7.38
2016-10-08T04:37:41.030Z,7.29
2016-10-08T04:38:41.044Z,7.32
2016-10-08T04:39:41.066Z,7.25
2016-10-08T04:40:41.074Z,7.28
2016-10-08T04:41:41.084Z,7.28
2016-10-08T04:42:41.108Z,7.25
2016-10-08T04:43:41.109Z,7.23
2016-10-08T04:44:41.133Z,7.17
2016-10-08T04:45:41.148Z,7.07
2016-10-08T04:46:41.163Z,7.15
2016-10-08T04:47:41.187Z,7.23
2016-10-08T04:48:41.203Z,7.21
2016-10-08T04:49:41.215Z,7.15
2016-10-08T04:50:41.213Z,7.18
2016-10-08T04:51:41.236Z,7.17
2016-10-08T04:52:41.261Z,7.25
2016-10-08T04:53:41.286Z,7.15
2016-10-08T04:54:41.283Z,7.2
2016-10-08T04:55:41.307Z,7.11
2016-10-08T04:56:41.334Z,7.13
2016-10-08T04:57:41.329Z,7
2016-10-08T04:58:41.351Z,7.02
2016-10-08T04:59:41.365Z,7.13
2016-10-08T05:00:41.375Z,7.07
2016-10-08T05:01:41.400Z,7.06
2016-10-08T05:02:41.415Z,7.14
2016-10-08T05:03:41.421Z,6.99
2016-10-08T05:04:41.442Z,6.99
2016-10-08T05:05:41.444Z,7
2016-10-08T05:06:41.481Z,6.99
2016-10-08T05:07:41.491Z,6.97
2016-10-08T05:08:41.507Z,6.96
2016-10-08T05:09:41.514Z,6.96
2016-10-08T05:10:41.533Z,6.97
2016-10-08T05:11:41.540Z,6.87
2016-10-08T05:12:41.563Z,6.92
2016-10-08T05:13:41.574Z,6.89
2016-10-08T05:14:41.599Z,6.92
2016-10-08T05:15:41.621Z,6.89
2016-10-08T05:16:41.638Z,6.87
2016-10-08T05:17:41.637Z,6.88
2016-10-08T05:18:41.644Z,6.97
2016-10-08T05:19:41.680Z,6.85
2016-10-08T05:20:41.694Z,6.93
2016-10-08T05:21:41.704Z,6.87
2016-10-08T05:22:41.717Z,6.89
2016-10-08T05:23:41.732Z,6.89
2016-10-08T05:24:41.746Z,6.84
2016-10-08T05:25:41.768Z,6.95
2016-10-08T05:26:41.783Z,6.74
2016-10-08T05:27:41.791Z,6.81
2016-10-08T05:28:41.809Z,6.81
2016-10-08T05:29:41.821Z,6.82
2016-10-08T05:30:41.838Z,6.79
2016-10-08T05:31:41.873Z,6.66
2016-10-08T05:32:41.869Z,6.74
2016-10-08T05:33:41.894Z,6.7
2016-10-08T05:34:41.903Z,6.66
2016-10-08T05:35:41.923Z,6.69
2016-10-08T05:36:41.956Z,6.62
2016-10-08T05:37:41.950Z,6.69
2016-10-08T05:38:42.280Z,6.69
2016-10-08T05:39:41.975Z,6.72
2016-10-08T05:40:41.996Z,6.7
2016-10-08T05:41:41.999Z,6.7
2016-10-08T05:42:42.003Z,6.7
2016-10-08T05:43:42.042Z,6.66
2016-10-08T05:44:42.058Z,6.69
2016-10-08T05:45:42.061Z,6.7
2016-10-08T05:46:42.071Z,6.75
2016-10-08T05:47:42.100Z,6.74
2016-10-08T05:48:42.100Z,6.72
2016-10-08T05:49:42.130Z,6.85
2016-10-08T05:50:42.151Z,6.79
2016-10-08T05:51:42.153Z,6.85
2016-10-08T05:52:42.175Z,6.85
2016-10-08T05:53:42.187Z,6.88
2016-10-08T05:54:42.204Z,6.87
2016-10-08T05:55:42.224Z,6.87
2016-10-08T05:56:42.237Z,6.82
2016-10-08T05:57:42.255Z,6.79
2016-10-08T05:58:42.273Z,6.84
2016-10-08T05:59:42.274Z,6.85
2016-10-08T06:00:42.274Z,6.93
2016-10-08T06:01:42.296Z,6.92
2016-10-08T06:02:42.323Z,6.84
2016-10-08T06:03:42.345Z,6.92
2016-10-08T06:04:42.355Z,6.89
2016-10-08T06:05:42.369Z,6.92
2016-10-08T06:06:42.388Z,6.93
2016-10-08T06:07:42.405Z,6.89
2016-10-08T06:08:42.412Z,6.96
2016-10-08T06:09:42.419Z,6.87
2016-10-08T06:10:42.437Z,6.93
2016-10-08T06:11:42.466Z,6.92
2016-10-08T06:12:42.496Z,6.93
2016-10-08T06:13:42.497Z,6.96
2016-10-08T06:14:42.521Z,6.96
2016-10-08T06:15:42.533Z,6.97
2016-10-08T06:16:42.553Z,6.93
2016-10-08T06:17:42.549Z,6.92
2016-10-08T06:18:42.574Z,7.05
2016-10-08T06:19:42.593Z,6.99
2016-10-08T06:20:42.611Z,7.02
2016-10-08T06:21:42.619Z,7.05
2016-10-08T06:22:42.633Z,7.1
2016-10-08T06:23:42.651Z,7.03
2016-10-08T06:24:42.667Z,7.03
2016-10-08T06:25:42.681Z,7.2
2016-10-08T06:26:42.701Z,7.21
2016-10-08T06:27:42.713Z,7.2
2016-10-08T06:28:42.719Z,7.17
2016-10-08T06:29:42.725Z,7.13
2016-10-08T06:30:42.776Z,7.18
2016-10-08T06:31:42.782Z,7.24
2016-10-08T06:32:42.773Z,7.31
2016-10-08T06:33:42.801Z,7.32
2016-10-08T06:34:42.807Z,7.32
2016-10-08T06:35:42.823Z,7.42
2016-10-08T06:36:42.849Z,7.42
2016-10-08T06:37:42.854Z,7.51
2016-10-08T06:38:42.876Z,7.56
2016-10-08T06:39:42.893Z,7.5
2016-10-08T06:40:42.912Z,7.56
2016-10-08T06:41:42.907Z,7.6
2016-10-08T06:42:42.939Z,7.58
2016-10-08T06:43:42.961Z,7.67
2016-10-08T06:44:42.982Z,7.66
2016-10-08T06:45:43.023Z,7.66
2016-10-08T06:46:42.998Z,7.72
2016-10-08T06:47:43.033Z,7.76
2016-10-08T06:48:43.048Z,7.79
2016-10-08T06:49:43.042Z,7.7
2016-10-08T06:50:43.052Z,7.7
2016-10-08T06:51:43.071Z,7.69
2016-10-08T06:52:43.098Z,7.79
2016-10-08T06:53:43.104Z,7.79
2016-10-08T06:54:43.120Z,7.87
2016-10-08T06:55:43.123Z,7.97
2016-10-08T06:56:43.137Z,7.95
2016-10-08T06:57:43.163Z,8
2016-10-08T06:58:43.177Z,8.15
2016-10-08T06:59:43.206Z,8.16
2016-10-08T07:00:43.219Z,8.27
2016-10-08T07:01:43.235Z,8.38
2016-10-08T07:02:43.241Z,8.36
2016-10-08T07:03:43.269Z,8.51
2016-10-08T07:04:43.279Z,8.46
2016-10-08T07:05:43.304Z,8.46
2016-10-08T07:06:43.301Z,8.53
2016-10-08T07:07:43.319Z,8.58
2016-10-08T07:08:43.333Z,8.56
2016-10-08T07:09:43.348Z,8.69
2016-10-08T07:10:43.370Z,8.7
2016-10-08T07:11:43.389Z,8.71
2016-10-08T07:12:43.403Z,8.66
2016-10-08T07:13:43.407Z,8.55
2016-10-08T07:14:43.442Z,8.53
2016-10-08T07:15:43.455Z,8.6
2016-10-08T07:16:43.479Z,8.66
2016-10-08T07:17:43.487Z,8.64
2016-10-08T07:18:43.491Z,8.69
2016-10-08T07:19:43.520Z,8.74
2016-10-08T07:20:43.526Z,8.88
2016-10-08T07:21:43.544Z,8.94
2016-10-08T07:22:43.560Z,8.94
2016-10-08T07:23:43.574Z,9.06
2016-10-08T07:24:43.590Z,9.1
2016-10-08T07:25:43.611Z,9.22
2016-10-08T07:26:43.623Z,9.26
2016-10-08T07:27:43.646Z,9.36
2016-10-08T07:28:43.644Z,9.32
2016-10-08T07:29:43.671Z,9.34
2016-10-08T07:30:43.700Z,9.36
2016-10-08T07:31:43.698Z,9.47
2016-10-08T07:32:43.717Z,9.39
2016-10-08T07:33:43.733Z,9.44
2016-10-08T07:34:43.750Z,9.61
2016-10-08T07:35:43.769Z,9.55
2016-10-08T07:36:43.778Z,9.72
2016-10-08T07:37:43.791Z,9.74
2016-10-08T07:38:43.826Z,9.84
2016-10-08T07:39:43.837Z,9.99
2016-10-08T07:40:43.851Z,10.07
2016-10-08T07:41:43.862Z,10.07
2016-10-08T07:42:43.901Z,10.13
2016-10-08T07:43:43.896Z,10.15
2016-10-08T07:44:43.897Z,10.19
2016-10-08T07:45:43.941Z,10.28
2016-10-08T07:46:43.953Z,10.3
2016-10-08T07:47:43.953Z,10.35
2016-10-08T07:48:43.982Z,10.37
2016-10-08T07:49:43.994Z,10.44
2016-10-08T07:50:44.011Z,10.61
2016-10-08T07:51:44.036Z,10.81
2016-10-08T07:52:44.045Z,10.9
2016-10-08T07:53:44.069Z,11.08
2016-10-08T07:54:44.082Z,11.11
2016-10-08T07:55:44.098Z,11.02
2016-10-08T07:56:44.103Z,10.97
2016-10-08T07:57:44.127Z,10.89
2016-10-08T07:58:44.130Z,10.89
2016-10-08T07:59:44.155Z,10.82
2016-10-08T08:00:44.171Z,10.87
2016-10-08T08:01:44.196Z,10.78
2016-10-08T08:02:44.215Z,10.75
2016-10-08T08:03:44.232Z,10.89
2016-10-08T08:04:44.238Z,10.78
2016-10-08T08:05:44.254Z,10.81
2016-10-08T08:06:44.280Z,10.75
2016-10-08T08:07:44.297Z,10.72
2016-10-08T08:08:44.321Z,10.69
2016-10-08T08:09:44.321Z,10.63
2016-10-08T08:10:44.346Z,10.48
2016-10-08T08:11:44.343Z,10.48
2016-10-08T08:12:44.391Z,10.49
2016-10-08T08:13:44.402Z,10.53
2016-10-08T08:14:44.420Z,10.44
2016-10-08T08:15:44.419Z,10.42
2016-10-08T08:16:44.433Z,10.42
2016-10-08T08:17:44.465Z,10.44
2016-10-08T08:18:44.486Z,10.44
2016-10-08T08:19:44.494Z,10.44
2016-10-08T08:20:44.519Z,10.4
2016-10-08T08:21:44.533Z,10.37
2016-10-08T08:22:44.538Z,10.46
2016-10-08T08:23:44.549Z,10.42
2016-10-08T08:24:44.564Z,10.4
2016-10-08T08:25:44.593Z,10.37
2016-10-08T08:26:44.616Z,10.34
2016-10-08T08:27:44.636Z,10.38
2016-10-08T08:28:44.643Z,10.46
2016-10-08T08:29:44.660Z,10.51
2016-10-08T08:30:44.678Z,10.59
2016-10-08T08:31:44.683Z,10.69
2016-10-08T08:32:44.719Z,10.78
2016-10-08T08:33:44.717Z,10.76
2016-10-08T08:34:44.752Z,10.9
2016-10-08T08:35:44.757Z,10.82
2016-10-08T08:36:44.775Z,10.84
2016-10-08T08:37:44.801Z,10.79
2016-10-08T08:38:44.816Z,10.82
2016-10-08T08:39:44.815Z,10.94
2016-10-08T08:40:44.841Z,10.97
2016-10-08T08:41:44.861Z,10.9
2016-10-08T08:42:44.870Z,11.08
2016-10-08T08:43:44.887Z,11.22
2016-10-08T08:44:44.917Z,11.35
2016-10-08T08:45:44.937Z,11.41
2016-10-08T08:46:44.935Z,11.36
2016-10-08T08:47:44.964Z,11.4
2016-10-08T08:48:44.981Z,11.45
2016-10-08T08:49:44.980Z,11.65
2016-10-08T08:50:45.007Z,11.63
2016-10-08T08:51:45.021Z,11.7
2016-10-08T08:52:45.041Z,11.73
2016-10-08T08:53:45.055Z,11.8
2016-10-08T08:54:45.084Z,11.87
2016-10-08T08:55:45.110Z,11.73
2016-10-08T08:56:45.115Z,11.63
2016-10-08T08:57:45.135Z,11.59
2016-10-08T08:58:45.159Z,11.52
2016-10-08T08:59:45.171Z,11.54
2016-10-08T09:00:45.181Z,11.44
2016-10-08T09:01:45.180Z,11.4
2016-10-08T09:02:45.227Z,11.37
2016-10-08T09:03:45.240Z,11.22
2016-10-08T09:04:45.248Z,11.3
2016-10-08T09:05:45.266Z,11.25
2016-10-08T09:06:45.291Z,11.29
2016-10-08T09:07:45.292Z,11.22
2016-10-08T09:08:45.339Z,11.15
2016-10-08T09:09:45.344Z,11.05
2016-10-08T09:10:45.355Z,11.12
2016-10-08T09:11:45.367Z,11.11
2016-10-08T09:12:45.384Z,11.14
2016-10-08T09:13:45.402Z,11.1
2016-10-08T09:14:45.429Z,11.17
2016-10-08T09:15:45.442Z,11.14
2016-10-08T09:16:45.458Z,11.22
2016-10-08T09:17:45.463Z,11.25
2016-10-08T09:18:45.489Z,11.29
2016-10-08T09:19:45.501Z,11.35
2016-10-08T09:20:45.525Z,11.43
2016-10-08T09:21:45.551Z,11.45
2016-10-08T09:22:45.567Z,11.51
2016-10-08T09:23:45.588Z,11.52
2016-10-08T09:24:45.583Z,11.57
2016-10-08T09:25:45.628Z,11.62
2016-10-08T09:26:45.629Z,11.6
2016-10-08T09:27:45.643Z,11.59
2016-10-08T09:28:45.669Z,11.52
2016-10-08T09:29:45.694Z,11.54
2016-10-08T09:30:45.689Z,11.52
2016-10-08T09:31:45.734Z,11.45
2016-10-08T09:32:45.746Z,11.36
2016-10-08T09:33:45.746Z,11.33
2016-10-08T09:34:45.773Z,11.3
2016-10-08T09:35:45.787Z,11.17
2016-10-08T09:36:45.803Z,11.22
2016-10-08T09:37:45.814Z,11.12
2016-10-08T09:38:45.840Z,11.15
2016-10-08T09:39:45.850Z,11.35
2016-10-08T09:40:45.853Z,11.37
2016-10-08T09:41:45.876Z,11.48
2016-10-08T09:42:45.902Z,11.65
2016-10-08T09:43:45.926Z,11.73
2016-10-08T09:44:45.957Z,11.75
2016-10-08T09:45:45.997Z,11.86
2016-10-08T09:46:45.999Z,11.87
2016-10-08T09:47:45.992Z,12.07
2016-10-08T09:48:46.010Z,12.13
2016-10-08T09:49:46.026Z,12.35
2016-10-08T09:50:46.036Z,12.29
2016-10-08T09:51:46.079Z,12.37
2016-10-08T09:52:46.082Z,12.32
2016-10-08T09:53:46.104Z,12.22
2016-10-08T09:54:46.105Z,12.28
2016-10-08T09:55:46.132Z,12.09
2016-10-08T09:56:46.140Z,12.1
2016-10-08T09:57:46.178Z,12.09
2016-10-08T09:58:46.194Z,12.13
2016-10-08T09:59:46.220Z,12.15
2016-10-08T10:00:46.215Z,12.04
2016-10-08T10:01:46.246Z,12.03
2016-10-08T10:02:46.257Z,12.24
2016-10-08T10:03:46.274Z,12.15
2016-10-08T10:04:46.293Z,12.09
2016-10-08T10:05:46.313Z,12.09
2016-10-08T10:06:46.321Z,12.09
2016-10-08T10:07:46.353Z,12.18
2016-10-08T10:08:46.378Z,12.32
2016-10-08T10:09:46.368Z,12.42
2016-10-08T10:10:46.405Z,12.4
2016-10-08T10:11:46.405Z,12.58
2016-10-08T10:12:46.435Z,12.7
2016-10-08T10:13:46.446Z,12.76
2016-10-08T10:14:46.479Z,12.58
2016-10-08T10:15:46.490Z,12.61
2016-10-08T10:16:46.509Z,12.8
2016-10-08T10:17:46.530Z,12.94
2016-10-08T10:18:46.557Z,12.9
2016-10-08T10:19:46.561Z,12.9
2016-10-08T10:20:46.595Z,12.67
2016-10-08T10:21:46.604Z,12.39
2016-10-08T10:22:46.623Z,12.36
2016-10-08T10:23:46.635Z,12.25
2016-10-08T10:24:46.658Z,12.2
2016-10-08T10:25:46.675Z,12.2
2016-10-08T10:26:46.689Z,12.32
2016-10-08T10:27:46.714Z,12.39
2016-10-08T10:28:46.727Z,12.42
2016-10-08T10:29:46.731Z,12.61
2016-10-08T10:30:46.751Z,12.67
2016-10-08T10:31:46.770Z,12.79
2016-10-08T10:32:46.792Z,12.83
2016-10-08T10:33:46.818Z,12.91
2016-10-08T10:34:46.843Z,13.05
2016-10-08T10:35:46.843Z,13.12
2016-10-08T10:36:46.865Z,13.19
2016-10-08T10:37:46.886Z,13.44
2016-10-08T10:38:46.911Z,13.71
2016-10-08T10:39:46.923Z,13.79
2016-10-08T10:40:46.940Z,14.1
2016-10-08T10:41:46.957Z,14.22
2016-10-08T10:42:46.986Z,14.4
2016-10-08T10:43:47.005Z,14.58
2016-10-08T10:44:47.020Z,14.59
2016-10-08T10:45:47.031Z,14.6
2016-10-08T10:46:47.048Z,14.6
2016-10-08T10:47:47.078Z,14.66
2016-10-08T10:48:47.116Z,14.69
2016-10-08T10:49:47.128Z,14.7
2016-10-08T10:50:47.120Z,14.59
2016-10-08T10:51:47.145Z,14.45
2016-10-08T10:52:47.169Z,14.23
2016-10-08T10:53:47.179Z,14.03
2016-10-08T10:54:47.207Z,13.78
2016-10-08T10:55:47.212Z,13.56
2016-10-08T10:56:47.229Z,13.54
2016-10-08T10:57:47.242Z,13.46
2016-10-08T10:58:47.283Z,13.2
2016-10-08T10:59:47.292Z,13.09
2016-10-08T11:00:47.315Z,13.03
2016-10-08T11:01:47.323Z,12.86
2016-10-08T11:02:47.365Z,12.8
2016-10-08T11:03:47.355Z,12.65
2016-10-08T11:04:47.383Z,12.65
2016-10-08T11:05:47.399Z,12.73
2016-10-08T11:06:47.435Z,12.79
2016-10-08T11:07:47.438Z,12.86
2016-10-08T11:08:47.471Z,12.95
2016-10-08T11:09:47.480Z,13.08
2016-10-08T11:10:47.495Z,13.05
2016-10-08T11:11:47.520Z,13.13
2016-10-08T11:12:47.537Z,13.18
2016-10-08T11:13:47.544Z,13.16
2016-10-08T11:14:47.575Z,13.13
2016-10-08T11:15:47.595Z,13.04
2016-10-08T11:16:47.615Z,12.95
2016-10-08T11:17:47.624Z,12.98
2016-10-08T11:18:47.644Z,12.94
2016-10-08T11:19:47.668Z,12.98
2016-10-08T11:20:47.684Z,12.91
2016-10-08T11:21:47.702Z,12.78
2016-10-08T11:22:47.723Z,12.68
2016-10-08T11:23:47.737Z,12.7
2016-10-08T11:24:47.748Z,12.6
2016-10-08T11:25:47.778Z,12.49
2016-10-08T11:26:47.796Z,12.5
2016-10-08T11:27:47.815Z,12.49
2016-10-08T11:28:47.829Z,12.36
2016-10-08T11:29:47.853Z,12.4
2016-10-08T11:30:47.858Z,12.29
2016-10-08T11:31:47.878Z,12.25
2016-10-08T11:32:47.913Z,12.18
2016-10-08T11:33:47.920Z,12.31
2016-10-08T11:34:47.942Z,12.25
2016-10-08T11:35:47.955Z,12.25
2016-10-08T11:36:47.962Z,12.25
2016-10-08T11:37:47.984Z,12.29
2016-10-08T11:38:47.997Z,12.32
2016-10-08T11:39:48.025Z,12.29
2016-10-08T11:40:48.044Z,12.37
2016-10-08T11:41:48.070Z,12.43
2016-10-08T11:42:48.071Z,12.46
2016-10-08T11:43:48.082Z,12.47
2016-10-08T11:44:48.115Z,12.53
2016-10-08T11:45:48.124Z,12.42
2016-10-08T11:46:48.150Z,12.42
2016-10-08T11:47:48.156Z,12.55
2016-10-08T11:48:48.231Z,12.5
2016-10-08T11:49:48.229Z,12.6
2016-10-08T11:50:48.233Z,12.53
2016-10-08T11:51:48.239Z,12.57
2016-10-08T11:52:48.249Z,12.6
2016-10-08T11:53:48.276Z,12.72
2016-10-08T11:54:48.282Z,12.67
2016-10-08T11:55:48.312Z,12.8
2016-10-08T11:56:48.327Z,12.85
2016-10-08T11:57:48.348Z,12.85
2016-10-08T11:58:48.347Z,12.87
2016-10-08T11:59:48.383Z,12.86
2016-10-08T12:00:48.441Z,12.97
2016-10-08T12:01:48.461Z,13.04
2016-10-08T12:02:48.473Z,13.09
2016-10-08T12:03:48.445Z,13.04
2016-10-08T12:04:48.464Z,13.13
2016-10-08T12:05:48.484Z,13.09
2016-10-08T12:06:48.504Z,13.12
2016-10-08T12:07:48.554Z,13.12
2016-10-08T12:08:48.530Z,13.25
2016-10-08T12:09:48.551Z,13.37
2016-10-08T12:10:48.560Z,13.2
2016-10-08T12:11:48.585Z,13.27
2016-10-08T12:12:48.589Z,13.42
2016-10-08T12:13:48.618Z,13.3
2016-10-08T12:14:48.652Z,13.33
2016-10-08T12:15:48.664Z,13.44
2016-10-08T12:16:48.691Z,13.41
2016-10-08T12:17:48.700Z,13.28
2016-10-08T12:18:48.731Z,13.2
2016-10-08T12:19:48.747Z,13.16
2016-10-08T12:20:48.742Z,13.04
2016-10-08T12:21:48.779Z,13.08
2016-10-08T12:22:48.802Z,13.12
2016-10-08T12:23:48.799Z,13.04
2016-10-08T12:24:48.825Z,13.2
2016-10-08T12:25:48.850Z,13.23
2016-10-08T12:26:48.866Z,13.23
2016-10-08T12:27:48.887Z,13.37
2016-10-08T12:28:48.904Z,13.3
2016-10-08T12:29:48.916Z,13.44
2016-10-08T12:30:48.943Z,13.37
2016-10-08T12:31:48.944Z,13.44
2016-10-08T12:32:48.991Z,13.39
2016-10-08T12:33:48.992Z,13.38
2016-10-08T12:34:49.001Z,13.39
2016-10-08T12:35:49.015Z,13.31
2016-10-08T12:36:49.039Z,13.3
2016-10-08T12:37:49.059Z,13.39
2016-10-08T12:38:49.128Z,13.25
2016-10-08T12:39:51.354Z,13.3
2016-10-08T12:40:49.110Z,13.27
2016-10-08T12:41:49.135Z,13.28
2016-10-08T12:42:49.164Z,13.2
2016-10-08T12:43:49.189Z,13.27
2016-10-08T12:44:49.199Z,13.05
2016-10-08T12:45:49.242Z,13.16
2016-10-08T12:47:04.062Z,13.08
2016-10-08T12:47:49.229Z,13.12
2016-10-08T12:48:49.257Z,13.08
2016-10-08T12:49:49.277Z,13.23
2016-10-08T12:50:49.293Z,13.04
2016-10-08T12:51:49.313Z,13.04
2016-10-08T12:52:49.337Z,12.95
2016-10-08T12:53:49.351Z,12.85
2016-10-08T12:54:49.366Z,12.9
2016-10-08T12:55:49.379Z,12.93
2016-10-08T12:56:49.409Z,12.86
2016-10-08T12:57:49.435Z,12.87
2016-10-08T12:58:49.440Z,12.95
2016-10-08T12:59:49.459Z,13
2016-10-08T13:00:49.467Z,13.04
2016-10-08T13:01:49.497Z,13.12
2016-10-08T13:02:49.501Z,13.2
2016-10-08T13:03:49.530Z,13.15
2016-10-08T13:04:49.562Z,13.33
2016-10-08T13:05:49.574Z,13.19
2016-10-08T13:06:49.586Z,13.31
2016-10-08T13:07:49.611Z,13.22
2016-10-08T13:08:49.623Z,13.37
2016-10-08T13:09:49.631Z,13.27
2016-10-08T13:10:49.649Z,13.22